createdAt,value
2019-02-28T00:01:39.307Z,11.50
2019-02-28T00:04:10.030Z,9.60
2019-02-28T00:06:40.379Z,10.87
2019-02-28T00:09:12.144Z,9.93
2019-02-28T00:11:42.434Z,10.40
2019-02-28T00:14:12.757Z,11.17
2019-02-28T00:16:43.225Z,11.13
2019-02-28T00:19:13.372Z,9.63
2019-02-28T00:21:43.542Z,10.43
2019-02-28T00:24:13.741Z,10.53
2019-02-28T00:26:47.541Z,9.97
2019-02-28T00:29:15.929Z,10.97
2019-02-28T00:31:49.463Z,10.33
2019-02-28T00:34:18.038Z,9.17
2019-02-28T00:36:50.307Z,8.83
2019-02-28T00:39:20.447Z,9.87
2019-02-28T00:41:50.706Z,10.50
2019-02-28T00:44:20.892Z,10.30
2019-02-28T00:46:51.115Z,9.57
2019-02-28T00:49:24.494Z,10.03
2019-02-28T00:51:53.429Z,10.63
2019-02-28T00:54:23.666Z,9.10
2019-02-28T00:56:53.877Z,9.70
2019-02-28T00:59:24.265Z,9.93
2019-02-28T01:01:54.463Z,9.27
2019-02-28T01:04:25.769Z,9.13
2019-02-28T01:06:55.963Z,10.57
2019-02-28T01:09:27.143Z,10.30
2019-02-28T01:11:58.389Z,9.43
2019-02-28T01:14:28.594Z,9.17
2019-02-28T01:16:58.857Z,9.93
2019-02-28T01:19:29.075Z,8.47
2019-02-28T01:21:59.303Z,8.30
2019-02-28T01:24:34.483Z,9.90
2019-02-28T01:27:01.537Z,9.00
2019-02-28T01:29:32.914Z,9.40
2019-02-28T01:32:03.621Z,8.90
2019-02-28T01:34:33.843Z,8.93
2019-02-28T01:37:04.066Z,9.80
2019-02-28T01:39:34.244Z,8.43
2019-02-28T01:42:04.763Z,8.03
2019-02-28T01:44:35.842Z,8.83
2019-02-28T01:47:06.863Z,8.57
2019-02-28T01:49:37.059Z,7.70
2019-02-28T01:52:10.190Z,8.77
2019-02-28T01:54:39.172Z,8.50
2019-02-28T01:57:10.063Z,9.97
2019-02-28T01:59:40.545Z,8.13
2019-02-28T02:02:10.730Z,8.60
2019-02-28T02:04:43.240Z,8.73
2019-02-28T02:07:13.327Z,8.10
2019-02-28T02:09:46.313Z,8.60
2019-02-28T02:12:15.443Z,8.30
2019-02-28T02:14:45.821Z,8.70
2019-02-28T02:17:16.101Z,7.43
2019-02-28T02:19:49.388Z,8.87
2019-02-28T02:22:18.229Z,6.83
2019-02-28T02:24:48.455Z,6.77
2019-02-28T02:27:19.475Z,7.37
2019-02-28T02:29:50.850Z,6.07
2019-02-28T02:32:21.180Z,5.90
2019-02-28T02:34:51.455Z,5.47
2019-02-28T02:37:21.749Z,6.00
2019-02-28T02:39:52.016Z,6.37
2019-02-28T02:42:22.248Z,5.53
2019-02-28T02:44:52.461Z,6.20
2019-02-28T02:47:22.673Z,4.97
2019-02-28T02:49:57.423Z,5.07
2019-02-28T02:52:29.963Z,6.40
2019-02-28T02:54:56.983Z,5.30
2019-02-28T02:57:27.163Z,6.03
2019-02-28T02:59:58.468Z,5.63
2019-02-28T03:02:33.170Z,6.50
2019-02-28T03:05:01.993Z,6.20
2019-02-28T03:07:32.390Z,6.73
2019-02-28T03:10:02.613Z,8.60
2019-02-28T03:12:34.288Z,6.67
2019-02-28T03:15:04.679Z,6.90
2019-02-28T03:17:35.841Z,6.30
2019-02-28T03:20:07.951Z,6.57
2019-02-28T03:22:38.664Z,6.80
2019-02-28T03:25:10.017Z,6.63
2019-02-28T03:27:40.175Z,6.63
2019-02-28T03:30:26.496Z,5.83
2019-02-28T03:32:44.813Z,6.60
2019-02-28T03:35:15.082Z,6.67
2019-02-28T03:37:45.284Z,7.23
2019-02-28T03:40:15.587Z,6.80
2019-02-28T03:42:45.784Z,7.03
2019-02-28T03:45:16.245Z,6.87
2019-02-28T03:47:48.128Z,6.30
2019-02-28T03:50:21.865Z,6.30
2019-02-28T03:52:50.454Z,6.90
2019-02-28T03:55:20.785Z,8.77
2019-02-28T03:57:50.987Z,7.00
2019-02-28T04:00:21.271Z,7.67
2019-02-28T04:02:56.917Z,7.00
2019-02-28T04:05:28.070Z,6.40
2019-02-28T04:07:55.955Z,8.03
2019-02-28T04:10:26.136Z,9.40
2019-02-28T04:12:57.768Z,7.87
2019-02-28T04:15:27.989Z,7.00
2019-02-28T04:17:58.251Z,7.87
2019-02-28T04:20:36.118Z,9.27
2019-02-28T04:23:01.561Z,8.50
2019-02-28T04:25:31.763Z,8.10
2019-02-28T04:28:02.176Z,11.53
2019-02-28T04:30:34.381Z,9.97
2019-02-28T04:33:04.648Z,14.60
2019-02-28T04:35:34.819Z,13.43
2019-02-28T04:38:05.100Z,10.87
2019-02-28T04:40:35.305Z,8.03
2019-02-28T04:43:07.236Z,8.57
2019-02-28T04:45:37.746Z,7.67
2019-02-28T04:48:07.946Z,8.27
2019-02-28T04:50:38.266Z,7.50
2019-02-28T04:53:08.545Z,8.60
2019-02-28T04:55:38.790Z,7.80
2019-02-28T04:58:09.022Z,7.80
2019-02-28T05:00:39.260Z,6.77
2019-02-28T05:03:09.548Z,7.90
2019-02-28T05:05:40.221Z,8.53
2019-02-28T05:08:10.523Z,8.43
2019-02-28T05:10:40.705Z,8.60
2019-02-28T05:13:11.448Z,7.77
2019-02-28T05:15:43.214Z,7.60
2019-02-28T05:18:13.394Z,7.90
2019-02-28T05:20:45.962Z,8.93
2019-02-28T05:23:15.704Z,8.43
2019-02-28T05:25:45.907Z,7.97
2019-02-28T05:28:16.186Z,7.87
2019-02-28T05:30:46.505Z,8.80
2019-02-28T05:33:16.726Z,8.20
2019-02-28T05:35:47.121Z,7.70
2019-02-28T05:38:20.757Z,8.33
2019-02-28T05:40:49.392Z,8.23
2019-02-28T05:43:19.620Z,8.00
2019-02-28T05:45:49.886Z,8.00
2019-02-28T05:48:20.175Z,8.03
2019-02-28T05:50:53.337Z,7.93
2019-02-28T05:53:22.304Z,8.03
2019-02-28T05:55:52.584Z,7.37
2019-02-28T05:58:22.732Z,8.63
2019-02-28T06:00:53.033Z,7.80
2019-02-28T06:03:23.233Z,8.10
2019-02-28T06:05:53.735Z,9.17
2019-02-28T06:08:24.470Z,8.60
2019-02-28T06:10:56.069Z,8.67
2019-02-28T06:13:26.739Z,8.50
2019-02-28T06:15:58.229Z,8.47
2019-02-28T06:18:32.669Z,7.57
2019-02-28T06:21:00.793Z,8.83
2019-02-28T06:23:31.135Z,8.90
2019-02-28T06:26:01.477Z,7.80
2019-02-28T06:28:32.024Z,9.27
2019-02-28T06:31:02.242Z,7.77
2019-02-28T06:33:33.689Z,9.07
2019-02-28T06:36:05.465Z,8.70
2019-02-28T06:38:35.738Z,8.87
2019-02-28T06:41:07.607Z,9.03
2019-02-28T06:43:38.102Z,8.67
2019-02-28T06:46:09.490Z,8.83
2019-02-28T06:48:39.773Z,8.33
2019-02-28T06:51:10.533Z,8.70
2019-02-28T06:53:41.971Z,9.07
2019-02-28T06:56:12.168Z,9.73
2019-02-28T06:58:42.402Z,9.03
2019-02-28T07:01:12.754Z,8.20
2019-02-28T07:03:53.142Z,8.77
2019-02-28T07:06:17.905Z,9.57
2019-02-28T07:08:48.173Z,10.27
2019-02-28T07:11:19.922Z,10.03
2019-02-28T07:13:50.439Z,10.83
2019-02-28T07:16:21.032Z,10.07
2019-02-28T07:18:53.831Z,9.63
2019-02-28T07:21:24.040Z,10.87
2019-02-28T07:23:54.320Z,11.60
2019-02-28T07:26:24.619Z,12.50
2019-02-28T07:28:54.854Z,11.83
2019-02-28T07:31:25.543Z,13.10
2019-02-28T07:33:57.573Z,13.63
2019-02-28T07:36:27.826Z,14.03
2019-02-28T07:39:01.227Z,14.13
2019-02-28T07:41:33.925Z,13.87
2019-02-28T07:44:04.467Z,14.77
2019-02-28T07:46:34.661Z,14.13
2019-02-28T07:49:04.929Z,15.53
2019-02-28T07:51:35.188Z,15.47
2019-02-28T07:54:05.370Z,15.83
2019-02-28T07:56:42.742Z,15.53
2019-02-28T07:59:08.372Z,17.23
2019-02-28T08:01:38.584Z,15.90
2019-02-28T08:04:08.808Z,16.63
2019-02-28T08:06:40.425Z,17.00
2019-02-28T08:09:26.848Z,17.83
2019-02-28T08:11:57.262Z,19.10
2019-02-28T08:14:27.696Z,18.17
2019-02-28T08:16:57.921Z,18.87
2019-02-28T08:19:28.324Z,18.77
2019-02-28T08:21:58.612Z,18.70
2019-02-28T08:24:28.850Z,20.07
2019-02-28T08:26:59.265Z,19.70
2019-02-28T08:29:29.446Z,20.13
2019-02-28T08:31:59.678Z,20.30
2019-02-28T08:34:29.874Z,19.73
2019-02-28T08:37:00.339Z,20.03
2019-02-28T08:39:31.098Z,19.47
2019-02-28T08:42:04.550Z,19.87
2019-02-28T08:44:37.390Z,20.33
2019-02-28T08:47:07.884Z,20.90
2019-02-28T08:49:44.686Z,21.87
2019-02-28T08:52:12.141Z,21.63
2019-02-28T08:54:46.909Z,22.40
2019-02-28T08:57:17.226Z,20.40
2019-02-28T08:59:52.513Z,21.30
2019-02-28T09:02:22.571Z,21.70
2019-02-28T09:04:53.491Z,22.20
2019-02-28T09:07:24.158Z,21.83
2019-02-28T09:09:54.581Z,21.77
2019-02-28T09:12:24.856Z,21.70
2019-02-28T09:14:56.201Z,22.07
2019-02-28T09:17:26.621Z,22.93
2019-02-28T09:19:56.839Z,22.33
2019-02-28T09:22:28.059Z,23.10
2019-02-28T09:25:13.846Z,21.10
2019-02-28T09:27:45.435Z,28.80
2019-02-28T09:30:31.297Z,24.73
2019-02-28T09:33:01.568Z,22.67
2019-02-28T09:35:31.972Z,22.07
2019-02-28T09:38:06.361Z,21.23
2019-02-28T09:40:36.375Z,23.10
2019-02-28T09:43:06.622Z,23.40
2019-02-28T09:45:40.021Z,24.10
2019-02-28T09:48:10.140Z,24.33
2019-02-28T09:50:40.850Z,23.23
2019-02-28T09:53:15.513Z,24.37
2019-02-28T09:55:45.882Z,24.03
2019-02-28T09:58:16.617Z,24.93
2019-02-28T10:00:50.198Z,24.63
2019-02-28T10:03:19.536Z,24.13
2019-02-28T10:05:51.091Z,25.17
2019-02-28T10:08:26.167Z,22.70
2019-02-28T10:10:58.096Z,23.50
2019-02-28T10:13:28.583Z,22.40
2019-02-28T10:15:58.926Z,24.33
2019-02-28T10:18:29.372Z,23.20
2019-02-28T10:21:01.890Z,23.23
2019-02-28T10:23:31.640Z,26.43
2019-02-28T10:26:03.512Z,26.23
2019-02-28T10:28:33.842Z,27.97
2019-02-28T10:31:04.086Z,27.67
2019-02-28T10:33:34.308Z,27.07
2019-02-28T10:36:04.598Z,27.90
2019-02-28T10:38:35.641Z,29.70
2019-02-28T10:41:13.108Z,29.43
2019-02-28T10:43:54.815Z,31.67
2019-02-28T10:46:32.103Z,31.00
2019-02-28T10:49:12.849Z,31.23
2019-02-28T10:51:50.326Z,30.90
2019-02-28T10:54:26.651Z,30.20
2019-02-28T10:57:06.058Z,29.87
2019-02-28T10:59:42.213Z,29.00
2019-02-28T11:02:20.042Z,27.70
2019-02-28T11:04:57.050Z,28.30
2019-02-28T11:07:34.242Z,27.50
2019-02-28T11:10:16.279Z,26.83
2019-02-28T11:12:57.938Z,26.93
2019-02-28T11:15:36.934Z,27.60
2019-02-28T11:18:13.344Z,26.93
2019-02-28T11:20:52.988Z,28.13
2019-02-28T11:23:31.914Z,26.77
2019-02-28T11:26:10.481Z,26.37
2019-02-28T11:28:50.980Z,25.80
2019-02-28T11:31:29.693Z,25.67
2019-02-28T11:34:11.605Z,25.57
2019-02-28T11:36:52.216Z,26.73
2019-02-28T11:39:33.732Z,26.90
2019-02-28T11:42:12.121Z,26.03
2019-02-28T11:44:52.794Z,25.33
2019-02-28T11:47:32.334Z,26.13
2019-02-28T11:50:10.821Z,25.83
2019-02-28T11:52:46.605Z,25.50
2019-02-28T11:55:20.330Z,24.80
2019-02-28T11:57:53.259Z,23.70
2019-02-28T12:00:29.063Z,25.83
2019-02-28T12:03:00.910Z,25.23
2019-02-28T12:05:32.236Z,24.00
2019-02-28T12:08:09.301Z,24.57
2019-02-28T12:10:36.432Z,25.73
2019-02-28T12:13:06.678Z,25.30
2019-02-28T12:15:38.229Z,24.87
2019-02-28T12:18:09.152Z,25.60
2019-02-28T12:20:39.703Z,24.93
2019-02-28T12:23:10.403Z,23.80
2019-02-28T12:25:42.768Z,24.20
2019-02-28T12:28:13.028Z,25.13
2019-02-28T12:30:43.358Z,26.27
2019-02-28T12:33:15.375Z,23.63
2019-02-28T12:35:46.780Z,24.90
2019-02-28T12:38:17.090Z,26.37
2019-02-28T12:40:49.463Z,26.47
2019-02-28T12:43:19.484Z,25.53
2019-02-28T12:45:49.916Z,25.87
2019-02-28T12:48:21.788Z,27.40
2019-02-28T12:50:52.263Z,27.20
2019-02-28T12:53:25.285Z,28.23
2019-02-28T12:55:55.978Z,27.43
2019-02-28T12:58:26.257Z,26.87
2019-02-28T13:01:00.050Z,26.40
2019-02-28T13:03:30.660Z,27.93
2019-02-28T13:06:01.150Z,26.67
2019-02-28T13:08:31.491Z,26.20
2019-02-28T13:11:04.326Z,27.13
2019-02-28T13:13:34.239Z,27.57
2019-02-28T13:16:04.478Z,26.40
2019-02-28T13:18:34.771Z,27.70
2019-02-28T13:21:06.220Z,25.97
2019-02-28T13:23:40.527Z,27.67
2019-02-28T13:26:10.935Z,28.43
2019-02-28T13:28:41.364Z,27.53
2019-02-28T13:31:50.072Z,28.33
2019-02-28T13:34:40.789Z,28.13
2019-02-28T13:37:28.526Z,27.70
2019-02-28T13:40:24.820Z,27.70
2019-02-28T13:43:24.190Z,28.20
2019-02-28T13:46:13.477Z,28.40
2019-02-28T13:49:21.187Z,27.70
2019-02-28T13:52:26.531Z,28.60
2019-02-28T13:55:18.951Z,28.43
2019-02-28T13:58:21.588Z,27.90
2019-02-28T14:01:30.608Z,28.63
2019-02-28T14:04:44.999Z,29.37
2019-02-28T14:07:53.420Z,29.27
2019-02-28T14:10:58.444Z,28.33
2019-02-28T14:16:49.626Z,28.77
2019-02-28T14:19:55.329Z,28.40
2019-02-28T14:22:45.826Z,29.43
2019-02-28T14:25:54.906Z,28.37
2019-02-28T14:29:13.877Z,29.17
2019-02-28T14:35:24.954Z,28.97
2019-02-28T14:38:36.842Z,28.07
2019-02-28T14:41:41.897Z,30.33
2019-02-28T14:44:47.326Z,30.47
2019-02-28T14:47:56.875Z,29.83
2019-02-28T14:51:19.072Z,29.67
2019-02-28T14:54:16.345Z,30.10
2019-02-28T14:57:13.345Z,31.03
2019-02-28T15:00:38.974Z,29.10
2019-02-28T15:03:40.637Z,28.90
2019-02-28T15:06:12.883Z,26.77
2019-02-28T15:08:43.331Z,30.20
2019-02-28T15:11:13.834Z,29.03
2019-02-28T15:13:44.352Z,28.90
2019-02-28T15:16:26.561Z,30.73
2019-02-28T15:18:56.943Z,30.67
2019-02-28T15:21:27.266Z,32.10
2019-02-28T15:23:57.673Z,29.73
2019-02-28T15:26:29.564Z,31.00
2019-02-28T15:29:00.719Z,29.70
2019-02-28T15:31:31.173Z,32.37
2019-02-28T15:34:05.501Z,31.60
2019-02-28T15:36:34.525Z,31.20
2019-02-28T15:39:06.238Z,29.93
2019-02-28T15:41:37.742Z,30.03
2019-02-28T15:44:08.663Z,33.23
2019-02-28T15:46:39.770Z,32.67
2019-02-28T15:49:10.980Z,31.93
2019-02-28T15:51:41.570Z,32.83
2019-02-28T15:54:11.872Z,33.87
2019-02-28T15:56:42.295Z,34.80
2019-02-28T15:59:14.787Z,32.60
2019-02-28T16:01:44.606Z,33.57
2019-02-28T16:04:14.957Z,34.67
2019-02-28T16:06:45.490Z,33.80
2019-02-28T16:09:18.759Z,34.30
2019-02-28T16:11:49.168Z,33.37
2019-02-28T16:14:19.531Z,32.13
2019-02-28T16:16:50.385Z,34.03
2019-02-28T16:19:21.940Z,34.83
2019-02-28T16:21:53.216Z,35.30
2019-02-28T16:24:23.654Z,34.03
2019-02-28T16:26:56.743Z,35.33
2019-02-28T16:29:26.389Z,33.20
2019-02-28T16:31:57.122Z,34.93
2019-02-28T16:34:27.596Z,34.77
2019-02-28T16:37:00.948Z,34.30
2019-02-28T16:39:29.787Z,34.30
2019-02-28T16:42:00.288Z,36.03
2019-02-28T16:44:31.818Z,35.87
2019-02-28T16:47:03.455Z,34.97
2019-02-28T16:49:33.693Z,35.93
2019-02-28T16:52:06.022Z,36.97
2019-02-28T16:54:36.167Z,35.67
2019-02-28T16:57:09.495Z,36.27
2019-02-28T16:59:42.785Z,35.77
2019-02-28T17:02:13.597Z,36.43
2019-02-28T17:04:44.074Z,35.23
2019-02-28T17:07:15.197Z,34.23
2019-02-28T17:09:45.510Z,34.80
2019-02-28T17:12:36.206Z,34.80
2019-02-28T17:15:13.390Z,33.03
2019-02-28T17:17:51.412Z,33.10
2019-02-28T17:20:21.819Z,33.13
2019-02-28T17:22:52.414Z,32.33
2019-02-28T17:25:22.819Z,34.73
2019-02-28T17:28:12.293Z,34.17
2019-02-28T17:30:56.047Z,34.40
2019-02-28T17:33:26.383Z,32.73
2019-02-28T17:35:59.144Z,33.10
2019-02-28T17:38:32.293Z,33.47
2019-02-28T17:41:03.628Z,33.17
2019-02-28T17:43:36.902Z,34.00
2019-02-28T17:46:08.225Z,32.63
2019-02-28T17:48:59.707Z,32.73
2019-02-28T17:51:59.306Z,32.37
2019-02-28T17:55:08.852Z,33.77
2019-02-28T17:58:16.318Z,34.70
2019-02-28T18:01:32.664Z,34.00
2019-02-28T18:05:03.801Z,33.50
2019-02-28T18:08:02.119Z,35.47
2019-02-28T18:11:17.961Z,33.50
2019-02-28T18:14:11.179Z,32.90
2019-02-28T18:17:26.430Z,34.03
2019-02-28T18:20:20.904Z,31.53
2019-02-28T18:23:21.265Z,31.77
2019-02-28T18:26:13.258Z,30.37
2019-02-28T18:29:09.234Z,29.50
2019-02-28T18:31:41.985Z,30.70
2019-02-28T18:34:21.925Z,30.30
2019-02-28T18:36:54.559Z,30.77
2019-02-28T18:39:25.472Z,31.33
2019-02-28T18:41:55.860Z,31.50
2019-02-28T18:44:26.828Z,31.07
2019-02-28T18:46:58.197Z,30.73
2019-02-28T18:49:29.422Z,30.70
2019-02-28T18:52:01.607Z,30.27
2019-02-28T18:54:31.996Z,29.87
2019-02-28T18:57:04.550Z,29.67
2019-02-28T18:59:36.593Z,30.57
2019-02-28T19:02:07.309Z,30.73
2019-02-28T19:04:38.206Z,29.00
2019-02-28T19:07:08.491Z,29.97
2019-02-28T19:09:40.425Z,28.97
2019-02-28T19:12:11.459Z,29.53
2019-02-28T19:14:42.421Z,30.63
2019-02-28T19:17:13.777Z,27.07
2019-02-28T19:19:45.185Z,30.33
2019-02-28T19:22:16.018Z,29.63
2019-02-28T19:25:16.917Z,30.00
2019-02-28T19:27:47.390Z,28.33
2019-02-28T19:30:18.060Z,29.93
2019-02-28T19:32:48.383Z,29.80
2019-02-28T19:35:18.789Z,28.70
2019-02-28T19:37:49.963Z,30.83
2019-02-28T19:40:20.288Z,29.70
2019-02-28T19:42:50.738Z,30.87
2019-02-28T19:45:24.355Z,30.80
2019-02-28T19:47:54.659Z,32.10
2019-02-28T19:50:24.912Z,30.70
2019-02-28T19:52:55.412Z,30.67
2019-02-28T19:55:26.987Z,31.73
2019-02-28T19:57:57.322Z,30.70
2019-02-28T20:00:27.868Z,31.13
2019-02-28T20:02:58.090Z,32.00
2019-02-28T20:05:28.647Z,30.83
2019-02-28T20:07:59.183Z,30.20
2019-02-28T20:10:29.608Z,31.87
2019-02-28T20:13:01.711Z,32.13
2019-02-28T20:15:34.266Z,32.13
2019-02-28T20:18:04.697Z,31.63
2019-02-28T20:20:35.135Z,33.53
2019-02-28T20:23:06.199Z,30.47
2019-02-28T20:25:36.759Z,31.80
2019-02-28T20:28:07.038Z,31.33
2019-02-28T20:30:37.385Z,32.77
2019-02-28T20:33:07.737Z,32.53
2019-02-28T20:35:38.055Z,29.97
2019-02-28T20:38:08.725Z,32.17
2019-02-28T20:40:39.185Z,32.93
2019-02-28T20:43:09.631Z,31.30
2019-02-28T20:45:41.165Z,32.20
2019-02-28T20:48:11.581Z,33.23
2019-02-28T20:50:42.605Z,33.17
2019-02-28T20:53:12.849Z,30.53
2019-02-28T20:55:43.317Z,33.13
2019-02-28T20:58:13.695Z,33.90
2019-02-28T21:00:44.882Z,34.40
2019-02-28T21:03:15.312Z,33.73
2019-02-28T21:05:45.629Z,34.07
2019-02-28T21:08:15.956Z,33.90
2019-02-28T21:10:46.782Z,34.67
2019-02-28T21:13:22.013Z,35.47
2019-02-28T21:15:52.298Z,34.80
2019-02-28T21:18:22.652Z,35.43
2019-02-28T21:20:53.018Z,33.30
2019-02-28T21:23:23.702Z,35.43
2019-02-28T21:25:54.126Z,33.87
2019-02-28T21:28:25.679Z,35.47
2019-02-28T21:30:57.776Z,35.07
2019-02-28T21:33:29.114Z,33.90
2019-02-28T21:36:00.701Z,35.90
2019-02-28T21:38:35.881Z,33.17
2019-02-28T21:41:09.329Z,34.40
2019-02-28T21:43:40.788Z,35.33
2019-02-28T21:46:29.449Z,33.77
2019-02-28T21:48:59.862Z,33.57
2019-02-28T21:51:31.095Z,34.87
2019-02-28T21:54:01.677Z,34.27
2019-02-28T21:56:33.470Z,33.13
2019-02-28T21:59:06.567Z,35.03
2019-02-28T22:01:36.953Z,34.07
2019-02-28T22:04:08.532Z,34.63
2019-02-28T22:06:42.654Z,36.03
2019-02-28T22:09:14.207Z,33.80
2019-02-28T22:11:46.134Z,34.37
2019-02-28T22:14:16.728Z,35.40
2019-02-28T22:16:46.995Z,34.47
2019-02-28T22:19:17.244Z,33.90
2019-02-28T22:21:47.576Z,34.90
2019-02-28T22:24:18.033Z,33.50
2019-02-28T22:26:49.319Z,33.53
2019-02-28T22:29:19.632Z,35.13
2019-02-28T22:32:07.936Z,35.70
2019-02-28T22:35:03.201Z,35.10
2019-02-28T22:37:33.647Z,36.37
2019-02-28T22:40:04.110Z,38.03
2019-02-28T22:42:35.466Z,38.63
2019-02-28T22:45:06.411Z,38.87
2019-02-28T22:47:37.094Z,36.70
2019-02-28T22:50:07.790Z,39.20
2019-02-28T22:52:38.283Z,39.03
2019-02-28T22:55:08.899Z,36.97
2019-02-28T22:57:39.149Z,37.37
2019-02-28T23:00:22.099Z,38.80
2019-02-28T23:03:18.994Z,37.50
2019-02-28T23:05:49.533Z,39.30
2019-02-28T23:08:19.841Z,36.97
2019-02-28T23:10:50.128Z,37.83
2019-02-28T23:13:20.475Z,38.87
2019-02-28T23:15:50.702Z,38.17
2019-02-28T23:18:20.943Z,40.73
2019-02-28T23:20:51.221Z,39.47
2019-02-28T23:23:21.481Z,39.97
2019-02-28T23:25:52.123Z,40.23
2019-02-28T23:28:30.787Z,39.53
2019-02-28T23:31:35.635Z,39.70
2019-02-28T23:34:11.727Z,39.90
2019-02-28T23:36:42.053Z,42.53
2019-02-28T23:39:12.297Z,44.03
2019-02-28T23:41:42.689Z,42.97
2019-02-28T23:44:13.173Z,42.33
2019-02-28T23:46:43.428Z,42.60
2019-02-28T23:49:13.656Z,42.20
2019-02-28T23:51:44.966Z,45.03
2019-02-28T23:54:15.250Z,43.83
2019-02-28T23:56:45.473Z,44.47
2019-02-28T23:59:15.859Z,43.67
